createdAt,value
2018-11-01T00:01:24.772Z,75.20
2018-11-01T00:05:28.445Z,75.30
2018-11-01T00:09:32.152Z,75.30
2018-11-01T00:13:35.873Z,75.40
2018-11-01T00:17:39.777Z,75.50
2018-11-01T00:21:43.549Z,75.30
2018-11-01T00:25:47.275Z,75.30
2018-11-01T00:29:50.953Z,75.30
2018-11-01T00:33:54.830Z,75.20
2018-11-01T00:37:58.535Z,75.30
2018-11-01T00:42:02.283Z,75.50
2018-11-01T00:46:06.393Z,75.30
2018-11-01T00:50:14.020Z,75.20
2018-11-01T00:54:17.724Z,75.00
2018-11-01T00:58:21.428Z,74.80
2018-11-01T01:02:25.120Z,74.80
2018-11-01T01:06:28.830Z,74.60
2018-11-01T01:10:32.493Z,74.70
2018-11-01T01:14:37.302Z,74.70
2018-11-01T01:18:41.001Z,74.70
2018-11-01T01:22:45.654Z,74.70
2018-11-01T01:26:49.367Z,74.70
2018-11-01T01:30:53.040Z,74.70
2018-11-01T01:34:56.771Z,74.60
2018-11-01T01:39:00.572Z,74.60
2018-11-01T01:43:04.508Z,74.60
2018-11-01T01:47:08.252Z,74.70
2018-11-01T01:51:12.024Z,74.60
2018-11-01T01:55:15.796Z,74.50
2018-11-01T01:59:19.510Z,74.40
2018-11-01T02:03:23.213Z,74.40
2018-11-01T02:07:26.937Z,74.40
2018-11-01T02:11:30.623Z,74.30
2018-11-01T02:15:34.336Z,75.00
2018-11-01T02:19:38.031Z,74.20
2018-11-01T02:23:41.788Z,74.10
2018-11-01T02:27:50.760Z,74.00
2018-11-01T02:31:54.517Z,73.90
2018-11-01T02:35:58.264Z,73.90
2018-11-01T02:40:01.992Z,73.80
2018-11-01T02:44:06.280Z,73.90
2018-11-01T02:48:09.995Z,74.00
2018-11-01T02:52:13.688Z,74.00
2018-11-01T02:56:17.402Z,74.10
2018-11-01T03:00:21.164Z,74.10
2018-11-01T03:04:24.901Z,74.00
2018-11-01T03:08:28.689Z,74.00
2018-11-01T03:12:32.389Z,73.80
2018-11-01T03:16:36.101Z,73.70
2018-11-01T03:20:39.818Z,73.60
2018-11-01T03:24:43.564Z,73.60
2018-11-01T03:28:47.303Z,73.80
2018-11-01T03:32:51.059Z,73.00
2018-11-01T03:36:54.777Z,73.20
2018-11-01T03:40:58.476Z,73.40
2018-11-01T03:45:02.189Z,73.40
2018-11-01T03:49:06.397Z,73.40
2018-11-01T03:53:10.196Z,73.60
2018-11-01T03:57:13.863Z,73.70
2018-11-01T04:01:17.711Z,73.70
2018-11-01T04:05:21.407Z,73.70
2018-11-01T04:09:25.122Z,73.70
2018-11-01T04:13:28.924Z,73.80
2018-11-01T04:17:32.532Z,73.80
2018-11-01T04:21:36.709Z,74.30
2018-11-01T04:25:40.440Z,75.00
2018-11-01T04:29:44.144Z,75.40
2018-11-01T04:33:47.989Z,75.80
2018-11-01T04:37:51.604Z,76.30
2018-11-01T04:41:55.303Z,74.90
2018-11-01T04:45:59.023Z,74.70
2018-11-01T04:50:02.707Z,74.50
2018-11-01T04:54:06.600Z,74.30
2018-11-01T04:58:10.282Z,74.30
2018-11-01T05:02:13.985Z,74.10
2018-11-01T05:06:17.752Z,74.10
2018-11-01T05:10:21.476Z,74.10
2018-11-01T05:14:25.136Z,74.10
2018-11-01T05:18:28.844Z,74.00
2018-11-01T05:22:32.536Z,74.00
2018-11-01T05:26:36.245Z,74.80
2018-11-01T05:30:39.968Z,73.90
2018-11-01T05:34:43.712Z,73.70
2018-11-01T05:38:47.458Z,73.80
2018-11-01T05:42:51.203Z,73.80
2018-11-01T05:46:54.970Z,73.90
2018-11-01T05:50:58.694Z,73.90
2018-11-01T05:55:02.431Z,73.90
2018-11-01T05:59:06.556Z,74.00
2018-11-01T06:03:10.372Z,74.00
2018-11-01T06:07:14.202Z,74.00
2018-11-01T06:11:17.867Z,74.00
2018-11-01T06:15:21.640Z,74.10
2018-11-01T06:19:25.371Z,74.00
2018-11-01T06:23:29.049Z,74.00
2018-11-01T06:27:32.774Z,73.90
2018-11-01T06:31:36.480Z,73.90
2018-11-01T06:35:49.596Z,73.90
2018-11-01T06:39:53.311Z,74.00
2018-11-01T06:43:57.057Z,73.90
2018-11-01T06:48:00.832Z,73.80
2018-11-01T06:52:04.720Z,73.80
2018-11-01T06:56:08.415Z,73.70
2018-11-01T07:00:14.528Z,73.70
2018-11-01T07:04:18.259Z,74.00
2018-11-01T07:08:22.025Z,73.90
2018-11-01T07:12:25.738Z,74.10
2018-11-01T07:16:29.497Z,74.90
2018-11-01T07:20:33.229Z,74.10
2018-11-01T07:24:36.943Z,75.10
2018-11-01T07:28:40.749Z,74.40
2018-11-01T07:32:44.615Z,74.60
2018-11-01T07:36:48.248Z,74.80
2018-11-01T07:40:51.950Z,74.80
2018-11-01T07:44:55.735Z,75.70
2018-11-01T07:48:59.491Z,75.00
2018-11-01T07:53:03.224Z,75.10
2018-11-01T07:57:06.924Z,75.20
2018-11-01T08:01:10.832Z,75.10
2018-11-01T08:05:15.008Z,75.30
2018-11-01T08:09:18.694Z,75.30
2018-11-01T08:13:22.388Z,75.30
2018-11-01T08:17:26.068Z,75.40
2018-11-01T08:21:29.737Z,75.40
2018-11-01T08:25:33.431Z,75.60
2018-11-01T08:29:37.115Z,75.60
2018-11-01T08:33:40.880Z,75.60
2018-11-01T08:37:45.276Z,75.70
2018-11-01T08:41:49.020Z,75.80
2018-11-01T08:45:52.728Z,75.80
2018-11-01T08:49:56.519Z,75.60
2018-11-01T08:54:00.195Z,75.30
2018-11-01T08:58:03.900Z,75.50
2018-11-01T09:02:07.626Z,75.50
2018-11-01T09:06:12.012Z,75.50
2018-11-01T09:10:16.986Z,75.50
2018-11-01T09:14:20.699Z,75.50
2018-11-01T09:18:24.401Z,75.70
2018-11-01T09:22:28.116Z,75.70
2018-11-01T09:26:31.829Z,75.40
2018-11-01T09:30:35.576Z,75.40
2018-11-01T09:34:39.315Z,75.30
2018-11-01T09:38:43.152Z,75.00
2018-11-01T09:42:46.935Z,74.90
2018-11-01T09:46:50.959Z,74.90
2018-11-01T09:50:54.383Z,75.10
2018-11-01T09:54:58.348Z,75.10
2018-11-01T09:59:02.105Z,74.90
2018-11-01T10:03:06.099Z,75.00
2018-11-01T10:07:09.832Z,75.00
2018-11-01T10:11:13.598Z,75.00
2018-11-01T10:15:17.364Z,75.00
2018-11-01T10:19:21.108Z,74.50
2018-11-01T10:23:24.892Z,74.40
2018-11-01T10:27:28.660Z,74.20
2018-11-01T10:31:32.500Z,74.30
2018-11-01T10:35:36.249Z,74.60
2018-11-01T10:39:40.016Z,74.50
2018-11-01T10:43:43.780Z,74.50
2018-11-01T10:47:47.668Z,74.50
2018-11-01T10:51:51.490Z,74.50
2018-11-01T10:55:55.355Z,74.20
2018-11-01T10:59:59.210Z,74.30
2018-11-01T11:04:02.940Z,74.40
2018-11-01T11:08:06.750Z,74.30
2018-11-01T11:12:10.486Z,74.30
2018-11-01T11:16:14.276Z,74.30
2018-11-01T11:20:18.357Z,74.20
2018-11-01T11:24:22.033Z,74.00
2018-11-01T11:28:25.873Z,73.70
2018-11-01T11:32:29.763Z,73.50
2018-11-01T11:36:33.588Z,73.50
2018-11-01T11:40:37.356Z,73.40
2018-11-01T11:44:41.128Z,73.60
2018-11-01T11:48:44.899Z,72.80
2018-11-01T11:52:48.612Z,73.50
2018-11-01T11:56:52.392Z,73.60
2018-11-01T12:00:56.068Z,73.40
2018-11-01T12:04:59.823Z,73.30
2018-11-01T12:09:03.663Z,73.60
2018-11-01T12:13:07.388Z,73.70
2018-11-01T12:17:11.052Z,73.70
2018-11-01T12:21:14.709Z,73.70
2018-11-01T12:25:18.442Z,73.70
2018-11-01T12:29:22.230Z,73.70
2018-11-01T12:33:26.069Z,73.70
2018-11-01T12:37:29.812Z,73.40
2018-11-01T12:41:33.543Z,73.50
2018-11-01T12:45:37.276Z,73.20
2018-11-01T12:49:41.119Z,73.30
2018-11-01T12:53:44.792Z,73.30
2018-11-01T12:57:48.524Z,73.40
2018-11-01T13:01:52.269Z,73.60
2018-11-01T13:05:56.005Z,73.50
2018-11-01T13:10:00.032Z,73.50
2018-11-01T13:14:03.731Z,73.60
2018-11-01T13:18:07.528Z,73.70
2018-11-01T13:22:11.268Z,73.60
2018-11-01T13:26:15.039Z,73.40
2018-11-01T13:30:18.789Z,73.50
2018-11-01T13:34:22.531Z,73.50
2018-11-01T13:38:26.209Z,73.60
2018-11-01T13:42:29.929Z,73.90
2018-11-01T13:46:33.723Z,73.90
2018-11-01T13:50:37.436Z,73.90
2018-11-01T13:54:42.752Z,73.80
2018-11-01T13:58:46.466Z,74.00
2018-11-01T14:02:50.235Z,73.70
2018-11-01T14:06:54.006Z,73.60
2018-11-01T14:10:57.707Z,73.70
2018-11-01T14:15:01.731Z,73.70
2018-11-01T14:19:05.328Z,73.70
2018-11-01T14:23:09.032Z,73.70
2018-11-01T14:27:12.995Z,73.50
2018-11-01T14:31:16.828Z,73.40
2018-11-01T14:35:20.491Z,73.60
2018-11-01T14:39:24.208Z,73.50
2018-11-01T14:43:27.924Z,73.70
2018-11-01T14:47:31.625Z,73.80
2018-11-01T14:51:35.382Z,74.00
2018-11-01T14:55:40.432Z,74.30
2018-11-01T14:59:43.747Z,74.20
2018-11-01T15:03:46.572Z,74.50
2018-11-01T15:07:50.298Z,74.50
2018-11-01T15:11:54.023Z,74.50
2018-11-01T15:15:57.759Z,74.60
2018-11-01T15:20:01.499Z,74.60
2018-11-01T15:24:05.878Z,75.10
2018-11-01T15:28:09.613Z,74.70
2018-11-01T15:32:18.774Z,74.80
2018-11-01T15:36:22.558Z,74.80
2018-11-01T15:40:26.321Z,74.90
2018-11-01T15:44:30.925Z,75.00
2018-11-01T15:48:34.961Z,75.00
2018-11-01T15:52:38.836Z,74.90
2018-11-01T15:56:42.535Z,74.90
2018-11-01T16:00:46.256Z,74.80
2018-11-01T16:04:49.956Z,74.90
2018-11-01T16:08:53.647Z,74.80
2018-11-01T16:12:57.378Z,74.80
2018-11-01T16:17:01.110Z,74.90
2018-11-01T16:21:05.095Z,75.10
2018-11-01T16:25:08.807Z,75.30
2018-11-01T16:29:13.053Z,75.50
2018-11-01T16:33:16.780Z,75.50
2018-11-01T16:37:20.592Z,75.60
2018-11-01T16:41:24.306Z,75.70
2018-11-01T16:45:28.003Z,75.60
2018-11-01T16:49:31.809Z,75.70
2018-11-01T16:53:35.508Z,75.80
2018-11-01T16:57:39.279Z,75.80
2018-11-01T17:01:42.977Z,75.80
2018-11-01T17:05:46.707Z,75.80
2018-11-01T17:09:50.425Z,76.00
2018-11-01T17:13:54.107Z,76.00
2018-11-01T17:17:57.809Z,76.10
2018-11-01T17:22:01.533Z,76.30
2018-11-01T17:26:05.406Z,76.20
2018-11-01T17:30:09.817Z,76.30
2018-11-01T17:34:13.657Z,76.40
2018-11-01T17:38:17.259Z,76.10
2018-11-01T17:42:20.959Z,76.40
2018-11-01T17:46:24.697Z,76.40
2018-11-01T17:50:28.391Z,77.20
2018-11-01T17:54:32.098Z,76.30
2018-11-01T17:58:35.807Z,75.50
2018-11-01T18:02:40.046Z,76.20
2018-11-01T18:06:43.708Z,76.20
2018-11-01T18:10:47.404Z,76.20
2018-11-01T18:14:51.128Z,76.30
2018-11-01T18:18:54.895Z,76.30
2018-11-01T18:22:58.630Z,76.30
2018-11-01T18:27:02.307Z,76.40
2018-11-01T18:31:06.180Z,76.60
2018-11-01T18:35:10.716Z,76.70
2018-11-01T18:39:14.487Z,76.70
2018-11-01T18:43:18.144Z,76.90
2018-11-01T18:47:21.851Z,77.00
2018-11-01T18:51:25.874Z,76.90
2018-11-01T18:55:29.620Z,77.00
2018-11-01T18:59:33.351Z,77.00
2018-11-01T19:03:37.096Z,77.10
2018-11-01T19:07:41.341Z,77.20
2018-11-01T19:11:45.092Z,77.20
2018-11-01T19:15:49.101Z,77.20
2018-11-01T19:19:53.101Z,77.20
2018-11-01T19:23:56.955Z,77.30
2018-11-01T19:28:00.716Z,77.20
2018-11-01T19:32:04.431Z,77.30
2018-11-01T19:36:08.165Z,77.40
2018-11-01T19:40:13.952Z,77.30
2018-11-01T19:44:17.661Z,77.30
2018-11-01T19:48:21.408Z,77.30
2018-11-01T19:52:25.134Z,77.20
2018-11-01T19:56:28.848Z,77.30
2018-11-01T20:00:32.592Z,77.30
2018-11-01T20:04:36.364Z,77.30
2018-11-01T20:08:40.093Z,77.50
2018-11-01T20:12:44.183Z,77.50
2018-11-01T20:16:47.888Z,77.50
2018-11-01T20:20:52.006Z,77.50
2018-11-01T20:24:56.606Z,77.50
2018-11-01T20:29:00.358Z,77.40
2018-11-01T20:33:04.172Z,77.40
2018-11-01T20:37:07.892Z,77.50
2018-11-01T20:41:11.581Z,77.40
2018-11-01T20:45:15.379Z,77.40
2018-11-01T20:49:19.070Z,77.40
2018-11-01T20:53:22.807Z,77.30
2018-11-01T20:57:26.549Z,77.30
2018-11-01T21:01:30.254Z,77.30
2018-11-01T21:05:33.973Z,77.30
2018-11-01T21:09:37.697Z,77.30
2018-11-01T21:13:41.381Z,77.40
2018-11-01T21:17:45.103Z,77.20
2018-11-01T21:21:48.786Z,77.10
2018-11-01T21:25:52.491Z,77.10
2018-11-01T21:29:56.184Z,77.00
2018-11-01T21:33:59.900Z,76.90
2018-11-01T21:38:03.585Z,76.00
2018-11-01T21:42:07.305Z,76.80
2018-11-01T21:46:11.021Z,76.60
2018-11-01T21:50:14.708Z,76.50
2018-11-01T21:54:18.385Z,76.40
2018-11-01T21:58:22.063Z,76.30
2018-11-01T22:02:25.770Z,76.30
2018-11-01T22:06:29.480Z,76.30
2018-11-01T22:10:33.192Z,76.20
2018-11-01T22:14:36.876Z,76.10
2018-11-01T22:18:40.572Z,76.00
2018-11-01T22:22:44.305Z,76.00
2018-11-01T22:26:48.028Z,76.00
2018-11-01T22:30:51.729Z,76.00
2018-11-01T22:34:55.452Z,75.90
2018-11-01T22:38:59.159Z,76.00
2018-11-01T22:43:02.934Z,76.00
2018-11-01T22:47:07.102Z,76.00
2018-11-01T22:51:10.905Z,75.90
2018-11-01T22:55:14.594Z,75.90
2018-11-01T22:59:18.308Z,75.80
2018-11-01T23:03:22.046Z,75.80
2018-11-01T23:07:25.757Z,75.80
2018-11-01T23:11:29.475Z,75.70
2018-11-01T23:15:33.187Z,75.70
2018-11-01T23:19:37.003Z,75.80
2018-11-01T23:23:40.921Z,75.70
2018-11-01T23:27:44.640Z,75.80
2018-11-01T23:31:48.432Z,76.70
2018-11-01T23:35:52.119Z,75.90
2018-11-01T23:40:01.110Z,76.20
2018-11-01T23:44:10.259Z,76.30
2018-11-01T23:48:13.195Z,76.50
2018-11-01T23:52:21.238Z,76.60
2018-11-01T23:56:24.993Z,76.40
